createdAt,value
2023-01-30T00:01:17.636Z,58.13
2023-01-30T00:03:44.259Z,62.22
2023-01-30T00:06:11.076Z,56.90
2023-01-30T00:08:37.627Z,57.90
2023-01-30T00:11:08.799Z,64.38
2023-01-30T00:13:36.146Z,59.13
2023-01-30T00:16:02.988Z,61.40
2023-01-30T00:18:29.862Z,59.83
2023-01-30T00:21:01.824Z,61.67
2023-01-30T00:23:29.577Z,60.30
2023-01-30T00:25:56.326Z,67.93
2023-01-30T00:28:23.143Z,55.40
2023-01-30T00:30:50.659Z,54.13
2023-01-30T00:33:18.041Z,55.73
2023-01-30T00:35:46.023Z,55.13
2023-01-30T00:38:13.901Z,56.35
2023-01-30T00:40:40.814Z,62.17
2023-01-30T00:43:26.006Z,65.03
2023-01-30T00:46:12.598Z,58.25
2023-01-30T00:48:39.248Z,59.80
2023-01-30T00:51:05.794Z,60.83
2023-01-30T00:53:32.453Z,59.60
2023-01-30T00:55:59.349Z,56.80
2023-01-30T00:58:26.016Z,62.00
2023-01-30T01:00:52.910Z,67.90
2023-01-30T01:03:19.993Z,60.72
2023-01-30T01:05:46.736Z,62.05
2023-01-30T01:08:13.335Z,57.78
2023-01-30T01:10:39.910Z,61.05
2023-01-30T01:13:07.062Z,65.68
2023-01-30T01:15:34.030Z,63.97
2023-01-30T01:18:00.616Z,63.92
2023-01-30T01:20:27.230Z,59.00
2023-01-30T01:22:57.542Z,66.65
2023-01-30T01:25:25.079Z,73.65
2023-01-30T01:27:51.877Z,70.20
2023-01-30T01:30:19.674Z,65.93
2023-01-30T01:32:46.525Z,63.05
2023-01-30T01:35:13.114Z,71.22
2023-01-30T01:37:39.766Z,69.80
2023-01-30T01:40:25.551Z,71.45
2023-01-30T01:42:52.257Z,73.13
2023-01-30T01:45:23.467Z,70.93
2023-01-30T01:48:00.562Z,68.90
2023-01-30T01:50:37.522Z,72.63
2023-01-30T01:53:04.602Z,71.20
2023-01-30T01:55:31.567Z,73.10
2023-01-30T01:58:27.845Z,81.80
2023-01-30T02:00:56.997Z,70.50
2023-01-30T02:03:25.733Z,80.55
2023-01-30T02:05:57.198Z,72.45
2023-01-30T02:08:27.789Z,71.85
2023-01-30T02:11:17.158Z,84.20
2023-01-30T02:13:45.359Z,76.20
2023-01-30T02:16:12.020Z,77.45
2023-01-30T02:18:40.513Z,79.50
2023-01-30T02:24:18.948Z,76.70
2023-01-30T02:27:11.715Z,83.28
2023-01-30T02:29:59.585Z,86.25
2023-01-30T02:33:07.696Z,85.32
2023-01-30T02:38:15.780Z,92.88
2023-01-30T02:40:47.215Z,90.47
2023-01-30T02:43:13.705Z,91.95
2023-01-30T02:45:51.139Z,86.45
2023-01-30T02:48:23.496Z,90.23
2023-01-30T02:50:57.114Z,97.75
2023-01-30T02:53:24.081Z,91.28
2023-01-30T02:55:50.681Z,93.03
2023-01-30T02:58:18.646Z,85.28
2023-01-30T03:01:06.427Z,75.15
2023-01-30T03:04:09.396Z,85.55
2023-01-30T03:07:00.367Z,70.47
2023-01-30T03:09:36.029Z,81.88
2023-01-30T03:12:08.046Z,81.93
2023-01-30T03:14:46.408Z,82.30
2023-01-30T03:19:39.884Z,76.75
2023-01-30T03:22:06.591Z,78.32
2023-01-30T03:24:33.252Z,76.63
2023-01-30T03:27:03.971Z,72.28
2023-01-30T03:29:30.553Z,71.68
2023-01-30T03:31:57.207Z,62.67
2023-01-30T03:34:23.829Z,61.58
2023-01-30T03:36:50.576Z,73.65
2023-01-30T03:39:17.445Z,66.47
2023-01-30T03:41:44.213Z,65.35
2023-01-30T03:44:10.793Z,61.60
2023-01-30T03:46:37.373Z,60.22
2023-01-30T03:49:03.941Z,55.83
2023-01-30T03:51:30.553Z,57.20
2023-01-30T03:53:57.244Z,59.83
2023-01-30T03:56:23.827Z,57.83
2023-01-30T03:58:50.430Z,57.60
2023-01-30T04:01:17.312Z,58.83
2023-01-30T04:03:43.975Z,57.92
2023-01-30T04:06:10.541Z,55.65
2023-01-30T04:08:37.135Z,61.03
2023-01-30T04:11:03.783Z,53.50
2023-01-30T04:13:30.384Z,61.67
2023-01-30T04:16:20.800Z,54.13
2023-01-30T04:18:47.411Z,56.85
2023-01-30T04:21:14.700Z,49.30
2023-01-30T04:23:41.833Z,52.65
2023-01-30T04:26:09.726Z,54.72
2023-01-30T04:28:36.881Z,55.58
2023-01-30T04:31:04.015Z,46.92
2023-01-30T04:33:30.629Z,44.25
2023-01-30T04:35:59.071Z,42.83
2023-01-30T04:40:54.708Z,39.45
2023-01-30T04:43:22.211Z,42.67
2023-01-30T04:45:49.977Z,40.50
2023-01-30T04:48:17.091Z,35.38
2023-01-30T04:50:44.957Z,35.47
2023-01-30T04:53:11.498Z,32.35
2023-01-30T04:55:38.095Z,33.92
2023-01-30T04:58:04.698Z,31.48
2023-01-30T05:00:31.300Z,28.58
2023-01-30T05:02:57.941Z,28.20
2023-01-30T05:05:26.257Z,24.73
2023-01-30T05:07:53.361Z,27.67
2023-01-30T05:10:19.980Z,27.50
2023-01-30T05:12:46.643Z,27.23
2023-01-30T05:15:14.023Z,26.48
2023-01-30T05:17:43.090Z,25.30
2023-01-30T05:20:11.990Z,26.83
2023-01-30T05:22:38.535Z,26.07
2023-01-30T05:25:05.585Z,21.98
2023-01-30T05:27:32.201Z,30.67
2023-01-30T05:29:58.813Z,24.17
2023-01-30T05:32:27.312Z,24.83
2023-01-30T05:37:20.362Z,23.55
2023-01-30T05:39:46.914Z,20.10
2023-01-30T05:42:14.925Z,18.58
2023-01-30T05:44:41.562Z,18.83
2023-01-30T05:47:08.129Z,15.13
2023-01-30T05:49:34.723Z,14.10
2023-01-30T05:52:01.298Z,14.93
2023-01-30T05:54:27.893Z,12.02
2023-01-30T05:56:54.503Z,18.00
2023-01-30T05:59:21.299Z,13.57
2023-01-30T06:01:47.963Z,9.23
2023-01-30T06:04:14.613Z,12.35
2023-01-30T06:06:41.182Z,11.90
2023-01-30T06:09:07.799Z,9.35
2023-01-30T06:11:34.369Z,10.45
2023-01-30T06:14:00.907Z,9.13
2023-01-30T06:16:27.614Z,14.45
2023-01-30T06:18:54.249Z,9.00
2023-01-30T06:21:20.844Z,7.38
2023-01-30T06:23:47.470Z,11.70
2023-01-30T06:26:14.117Z,11.45
2023-01-30T06:28:40.753Z,10.90
2023-01-30T06:31:08.206Z,12.20
2023-01-30T06:33:35.102Z,10.73
2023-01-30T06:36:01.808Z,12.52
2023-01-30T06:38:28.386Z,10.45
2023-01-30T06:40:54.963Z,13.05
2023-01-30T06:43:21.855Z,13.57
2023-01-30T06:45:48.434Z,13.50
2023-01-30T06:48:15.125Z,14.52
2023-01-30T06:50:41.750Z,11.85
2023-01-30T06:53:08.900Z,21.60
2023-01-30T06:55:35.976Z,13.57
2023-01-30T06:58:07.157Z,9.75
2023-01-30T07:00:35.439Z,16.85
2023-01-30T07:03:02.134Z,14.50
2023-01-30T07:05:29.252Z,12.02
2023-01-30T07:07:55.978Z,16.23
2023-01-30T07:10:22.705Z,11.68
2023-01-30T07:12:49.288Z,11.80
2023-01-30T07:15:16.129Z,16.08
2023-01-30T07:17:43.251Z,10.73
2023-01-30T07:20:10.641Z,21.60
2023-01-30T07:22:37.360Z,12.98
2023-01-30T07:25:04.757Z,11.95
2023-01-30T07:27:31.508Z,18.65
2023-01-30T07:29:58.053Z,14.30
2023-01-30T07:32:24.846Z,20.05
2023-01-30T07:34:51.475Z,15.30
2023-01-30T07:37:18.064Z,21.33
2023-01-30T07:39:44.639Z,11.15
2023-01-30T07:42:11.177Z,14.35
2023-01-30T07:44:37.773Z,17.67
2023-01-30T07:47:04.425Z,11.77
2023-01-30T07:49:31.046Z,11.60
2023-01-30T07:51:59.248Z,12.45
2023-01-30T07:54:26.800Z,17.17
2023-01-30T07:56:54.753Z,11.47
2023-01-30T07:59:21.562Z,10.65
2023-01-30T08:01:48.170Z,11.85
2023-01-30T08:04:14.875Z,19.73
2023-01-30T08:06:41.576Z,18.48
2023-01-30T08:09:08.309Z,18.88
2023-01-30T08:11:35.336Z,14.75
2023-01-30T08:14:02.284Z,19.58
2023-01-30T08:16:28.966Z,12.35
2023-01-30T08:18:55.555Z,15.48
2023-01-30T08:21:22.201Z,19.13
2023-01-30T08:23:48.780Z,19.38
2023-01-30T08:26:15.490Z,18.25
2023-01-30T08:28:42.410Z,18.95
2023-01-30T08:31:11.087Z,20.02
2023-01-30T08:33:37.819Z,14.48
2023-01-30T08:36:04.981Z,20.42
2023-01-30T08:38:31.664Z,14.27
2023-01-30T08:40:59.444Z,14.57
2023-01-30T08:43:26.070Z,13.32
2023-01-30T08:45:56.632Z,19.83
2023-01-30T08:48:23.643Z,24.38
2023-01-30T08:50:54.549Z,18.55
2023-01-30T08:53:21.338Z,12.85
2023-01-30T08:55:51.596Z,18.05
2023-01-30T08:58:19.257Z,16.85
2023-01-30T09:00:47.834Z,14.13
2023-01-30T09:03:15.805Z,8.95
2023-01-30T09:05:42.980Z,15.55
2023-01-30T09:08:09.576Z,25.45
2023-01-30T09:10:36.616Z,16.73
2023-01-30T09:13:05.364Z,22.70
2023-01-30T09:15:32.875Z,15.82
2023-01-30T09:17:59.506Z,13.70
2023-01-30T09:20:26.095Z,12.88
2023-01-30T09:22:52.813Z,20.33
2023-01-30T09:25:19.484Z,14.75
2023-01-30T09:27:48.746Z,16.30
2023-01-30T09:30:15.743Z,17.55
2023-01-30T09:32:42.853Z,17.70
2023-01-30T09:35:09.618Z,12.98
2023-01-30T09:37:36.556Z,16.73
2023-01-30T09:40:04.544Z,16.88
2023-01-30T09:43:03.325Z,14.15
2023-01-30T09:45:45.283Z,15.60
2023-01-30T09:48:18.369Z,10.23
2023-01-30T09:51:08.437Z,31.10
2023-01-30T09:53:37.329Z,18.42
2023-01-30T09:56:04.335Z,18.40
2023-01-30T09:58:51.148Z,14.70
2023-01-30T10:01:42.329Z,12.70
2023-01-30T10:04:36.459Z,17.23
2023-01-30T10:07:21.416Z,14.57
2023-01-30T10:10:01.837Z,18.33
2023-01-30T10:12:31.482Z,12.07
2023-01-30T10:15:20.781Z,20.45
2023-01-30T10:18:09.205Z,19.08
2023-01-30T10:20:39.923Z,18.27
2023-01-30T10:23:50.219Z,21.77
2023-01-30T10:26:22.859Z,15.00
2023-01-30T10:29:06.117Z,11.68
2023-01-30T10:31:41.111Z,16.55
2023-01-30T10:34:14.243Z,19.27
2023-01-30T10:36:53.601Z,17.30
2023-01-30T10:39:32.689Z,16.33
2023-01-30T10:42:33.780Z,19.70
2023-01-30T10:45:13.230Z,16.33
2023-01-30T10:47:49.043Z,22.65
2023-01-30T10:50:21.992Z,12.18
2023-01-30T10:52:57.659Z,19.25
2023-01-30T10:55:37.588Z,19.85
2023-01-30T10:58:04.702Z,13.63
2023-01-30T11:00:40.657Z,20.75
2023-01-30T11:03:32.473Z,17.52
2023-01-30T11:06:07.110Z,11.32
2023-01-30T11:08:36.061Z,11.98
2023-01-30T11:11:39.705Z,18.17
2023-01-30T11:14:08.435Z,22.23
2023-01-30T11:16:55.931Z,17.95
2023-01-30T11:19:33.312Z,19.30
2023-01-30T11:22:04.775Z,14.15
2023-01-30T11:24:38.557Z,14.07
2023-01-30T11:27:18.062Z,11.95
2023-01-30T11:29:44.773Z,18.35
2023-01-30T11:32:29.848Z,17.27
2023-01-30T11:35:08.539Z,17.25
2023-01-30T11:37:40.837Z,15.50
2023-01-30T11:40:14.245Z,14.48
2023-01-30T11:42:44.875Z,14.15
2023-01-30T11:45:17.667Z,15.10
2023-01-30T11:47:59.142Z,19.67
2023-01-30T11:50:37.089Z,17.77
2023-01-30T11:53:43.951Z,15.63
2023-01-30T11:56:22.926Z,19.70
2023-01-30T11:58:58.713Z,17.98
2023-01-30T12:01:34.552Z,14.55
2023-01-30T12:04:01.471Z,14.93
2023-01-30T12:06:36.826Z,11.27
2023-01-30T12:09:03.963Z,16.00
2023-01-30T12:11:44.900Z,22.60
2023-01-30T12:14:32.970Z,17.33
2023-01-30T12:17:06.153Z,17.65
2023-01-30T12:19:38.256Z,13.05
2023-01-30T12:22:26.921Z,26.73
2023-01-30T12:25:02.309Z,9.40
2023-01-30T12:27:48.407Z,20.50
2023-01-30T12:30:23.019Z,12.05
2023-01-30T12:32:49.656Z,14.27
2023-01-30T12:35:18.086Z,7.35
2023-01-30T12:38:26.600Z,9.25
2023-01-30T12:41:13.073Z,9.18
2023-01-30T12:44:06.798Z,10.77
2023-01-30T12:47:12.181Z,17.10
2023-01-30T12:50:00.845Z,9.82
2023-01-30T12:52:41.439Z,14.10
2023-01-30T12:55:31.348Z,9.68
2023-01-30T12:58:04.691Z,13.00
2023-01-30T13:00:57.488Z,14.73
2023-01-30T13:03:30.288Z,10.98
2023-01-30T13:06:15.144Z,14.85
2023-01-30T13:09:00.102Z,13.43
2023-01-30T13:11:48.554Z,13.45
2023-01-30T13:14:42.765Z,19.58
2023-01-30T13:17:31.020Z,20.35
2023-01-30T13:22:48.937Z,13.60
2023-01-30T13:25:18.449Z,21.48
2023-01-30T13:27:52.752Z,18.73
2023-01-30T13:30:19.823Z,21.63
2023-01-30T13:32:50.368Z,8.70
2023-01-30T13:35:26.909Z,17.70
2023-01-30T13:37:54.509Z,12.73
2023-01-30T13:40:27.708Z,12.53
2023-01-30T13:42:59.272Z,10.35
2023-01-30T13:45:32.420Z,17.80
2023-01-30T13:48:14.643Z,17.52
2023-01-30T13:51:05.439Z,6.82
2023-01-30T13:53:52.949Z,10.52
2023-01-30T13:56:41.787Z,8.65
2023-01-30T13:59:10.095Z,10.32
2023-01-30T14:02:06.565Z,8.80
2023-01-30T14:04:36.751Z,8.48
2023-01-30T14:07:12.214Z,10.43
2023-01-30T14:09:51.056Z,14.32
2023-01-30T14:12:17.551Z,10.43
2023-01-30T14:15:00.999Z,11.90
2023-01-30T14:17:27.819Z,10.95
2023-01-30T14:20:13.030Z,10.30
2023-01-30T14:22:51.561Z,13.95
2023-01-30T14:25:30.283Z,7.20
2023-01-30T14:27:59.703Z,13.85
2023-01-30T14:30:44.805Z,7.53
2023-01-30T14:33:23.773Z,9.63
2023-01-30T14:36:02.709Z,11.80
2023-01-30T14:38:30.777Z,13.95
2023-01-30T14:41:00.498Z,10.70
2023-01-30T14:43:42.449Z,13.02
2023-01-30T14:46:17.900Z,7.18
2023-01-30T14:49:01.003Z,9.73
2023-01-30T14:51:30.449Z,10.27
2023-01-30T14:53:59.230Z,8.55
2023-01-30T14:57:05.672Z,12.25
2023-01-30T14:59:41.199Z,10.07
2023-01-30T15:02:13.951Z,13.98
2023-01-30T15:04:46.572Z,6.22
2023-01-30T15:07:23.468Z,12.98
2023-01-30T15:09:55.030Z,9.18
2023-01-30T15:12:27.749Z,7.40
2023-01-30T15:15:00.294Z,8.50
2023-01-30T15:17:26.848Z,12.18
2023-01-30T15:20:07.310Z,11.55
2023-01-30T15:22:57.253Z,8.45
2023-01-30T15:25:30.788Z,13.85
2023-01-30T15:28:08.062Z,15.68
2023-01-30T15:31:00.757Z,14.85
2023-01-30T15:33:32.425Z,15.02
2023-01-30T15:36:00.556Z,12.30
2023-01-30T15:38:34.236Z,15.55
2023-01-30T15:41:05.759Z,10.77
2023-01-30T15:43:57.430Z,13.73
2023-01-30T15:46:42.267Z,11.52
2023-01-30T15:49:33.745Z,15.52
2023-01-30T15:52:02.909Z,14.20
2023-01-30T15:54:29.573Z,9.70
2023-01-30T15:56:58.110Z,16.05
2023-01-30T16:02:08.255Z,15.73
2023-01-30T16:04:34.955Z,17.27
2023-01-30T16:07:14.670Z,13.00
2023-01-30T16:09:42.668Z,11.45
2023-01-30T16:12:29.042Z,11.82
2023-01-30T16:15:05.754Z,12.48
2023-01-30T16:17:35.459Z,16.45
2023-01-30T16:20:02.672Z,18.17
2023-01-30T16:22:33.784Z,13.10
2023-01-30T16:25:00.977Z,20.73
2023-01-30T16:27:35.709Z,17.27
2023-01-30T16:30:07.905Z,14.02
2023-01-30T16:32:34.936Z,18.70
2023-01-30T16:35:28.188Z,22.38
2023-01-30T16:37:57.017Z,18.65
2023-01-30T16:42:58.769Z,23.73
2023-01-30T16:45:54.215Z,14.20
2023-01-30T16:48:33.812Z,23.58
2023-01-30T16:51:00.416Z,15.93
2023-01-30T16:53:29.056Z,28.73
2023-01-30T16:56:10.114Z,19.65
2023-01-30T16:58:37.448Z,16.58
2023-01-30T17:01:06.667Z,24.38
2023-01-30T17:03:36.987Z,22.05
2023-01-30T17:06:12.471Z,16.42
2023-01-30T17:08:50.634Z,15.00
2023-01-30T17:11:36.020Z,20.90
2023-01-30T17:14:26.080Z,25.35
2023-01-30T17:17:13.072Z,18.38
2023-01-30T17:19:39.726Z,20.02
2023-01-30T17:22:08.931Z,20.00
2023-01-30T17:24:36.133Z,22.92
2023-01-30T17:27:04.144Z,16.52
2023-01-30T17:29:42.408Z,18.02
2023-01-30T17:34:41.221Z,16.90
2023-01-30T17:37:15.963Z,19.70
2023-01-30T17:39:42.575Z,24.13
2023-01-30T17:42:13.297Z,18.98
2023-01-30T17:44:40.383Z,17.25
2023-01-30T17:47:09.250Z,24.13
2023-01-30T17:49:35.957Z,19.15
2023-01-30T17:52:02.551Z,25.15
2023-01-30T17:54:31.887Z,20.77
2023-01-30T17:57:04.581Z,31.58
2023-01-30T17:59:32.558Z,23.95
2023-01-30T18:01:59.487Z,21.75
2023-01-30T18:04:26.097Z,22.27
2023-01-30T18:06:54.134Z,21.35
2023-01-30T18:09:22.445Z,16.75
2023-01-30T18:11:49.728Z,18.38
2023-01-30T18:14:16.926Z,17.98
2023-01-30T18:16:43.699Z,20.70
2023-01-30T18:19:13.279Z,26.25
2023-01-30T18:21:40.396Z,21.13
2023-01-30T18:24:07.566Z,18.98
2023-01-30T18:26:34.387Z,14.52
2023-01-30T18:29:01.098Z,15.63
2023-01-30T18:31:31.653Z,22.70
2023-01-30T18:33:58.564Z,25.77
2023-01-30T18:36:25.196Z,21.70
2023-01-30T18:38:53.563Z,24.15
2023-01-30T18:41:21.969Z,18.63
2023-01-30T18:43:54.544Z,23.73
2023-01-30T18:46:21.164Z,21.60
2023-01-30T18:48:47.870Z,27.63
2023-01-30T18:51:15.617Z,17.75
2023-01-30T18:53:43.192Z,14.98
2023-01-30T18:56:12.328Z,17.05
2023-01-30T18:58:39.086Z,20.85
2023-01-30T19:01:17.159Z,18.50
2023-01-30T19:03:44.138Z,18.90
2023-01-30T19:06:13.097Z,23.40
2023-01-30T19:08:40.631Z,21.85
2023-01-30T19:11:28.326Z,13.85
2023-01-30T19:13:55.917Z,19.33
2023-01-30T19:16:24.281Z,18.57
2023-01-30T19:18:51.249Z,18.42
2023-01-30T19:21:18.159Z,27.23
2023-01-30T19:23:45.032Z,20.75
2023-01-30T19:26:12.018Z,20.08
2023-01-30T19:28:39.130Z,26.23
2023-01-30T19:31:07.079Z,27.42
2023-01-30T19:33:33.775Z,17.00
2023-01-30T19:36:13.562Z,24.65
2023-01-30T19:38:40.533Z,19.48
2023-01-30T19:41:16.263Z,18.10
2023-01-30T19:43:43.015Z,16.20
2023-01-30T19:46:13.430Z,15.77
2023-01-30T19:48:41.111Z,20.45
2023-01-30T19:51:34.572Z,14.93
2023-01-30T19:54:04.498Z,17.30
2023-01-30T19:56:32.315Z,23.33
2023-01-30T19:59:00.513Z,19.88
2023-01-30T20:01:30.606Z,15.77
2023-01-30T20:03:57.962Z,25.77
2023-01-30T20:06:29.313Z,20.98
2023-01-30T20:08:59.934Z,17.67
2023-01-30T20:11:27.228Z,22.88
2023-01-30T20:13:54.322Z,14.77
2023-01-30T20:16:25.248Z,19.67
2023-01-30T20:18:57.595Z,20.52
2023-01-30T20:21:24.511Z,21.33
2023-01-30T20:23:51.732Z,17.48
2023-01-30T20:26:20.615Z,19.75
2023-01-30T20:28:47.750Z,19.48
2023-01-30T20:31:17.947Z,18.10
2023-01-30T20:33:45.118Z,20.50
2023-01-30T20:36:14.340Z,22.77
2023-01-30T20:38:42.934Z,15.82
2023-01-30T20:41:18.109Z,19.67
2023-01-30T20:43:47.248Z,22.05
2023-01-30T20:46:19.375Z,15.77
2023-01-30T20:48:46.480Z,23.20
2023-01-30T20:51:21.792Z,27.77
2023-01-30T20:53:56.775Z,21.35
2023-01-30T20:56:24.727Z,24.10
2023-01-30T20:58:51.600Z,22.15
2023-01-30T21:01:23.460Z,16.02
2023-01-30T21:03:52.383Z,31.73
2023-01-30T21:06:42.777Z,21.50
2023-01-30T21:09:14.475Z,22.77
2023-01-30T21:11:41.091Z,16.48
2023-01-30T21:14:07.779Z,21.80
2023-01-30T21:16:35.795Z,15.23
2023-01-30T21:19:05.403Z,17.33
2023-01-30T21:21:39.108Z,23.38
2023-01-30T21:24:09.096Z,16.13
2023-01-30T21:26:38.022Z,21.65
2023-01-30T21:29:06.237Z,15.70
2023-01-30T21:31:34.458Z,15.07
2023-01-30T21:34:01.249Z,21.02
2023-01-30T21:36:28.042Z,21.85
2023-01-30T21:39:13.318Z,15.45
2023-01-30T21:41:57.585Z,21.80
2023-01-30T21:44:32.082Z,19.90
2023-01-30T21:46:58.977Z,17.85
2023-01-30T21:49:26.079Z,21.48
2023-01-30T21:51:52.957Z,21.92
2023-01-30T21:54:19.914Z,23.90
2023-01-30T21:56:46.590Z,13.90
2023-01-30T21:59:13.795Z,19.73
2023-01-30T22:01:40.934Z,28.65
2023-01-30T22:04:11.674Z,21.77
2023-01-30T22:06:39.008Z,16.33
2023-01-30T22:09:06.224Z,24.33
2023-01-30T22:11:35.074Z,24.67
2023-01-30T22:14:01.737Z,20.25
2023-01-30T22:16:29.162Z,29.95
2023-01-30T22:18:58.147Z,14.13
2023-01-30T22:21:27.436Z,29.52
2023-01-30T22:23:54.889Z,21.65
2023-01-30T22:26:23.228Z,22.93
2023-01-30T22:28:56.194Z,20.25
2023-01-30T22:31:23.992Z,18.75
2023-01-30T22:33:53.816Z,29.65
2023-01-30T22:36:23.284Z,24.13
2023-01-30T22:38:50.589Z,22.02
2023-01-30T22:41:19.956Z,26.38
2023-01-30T22:43:48.975Z,20.05
2023-01-30T22:46:17.065Z,23.05
2023-01-30T22:48:43.972Z,19.67
2023-01-30T22:51:19.281Z,25.00
2023-01-30T22:53:48.809Z,18.17
2023-01-30T22:56:17.483Z,18.92
2023-01-30T22:58:45.010Z,21.00
2023-01-30T23:01:23.075Z,18.57
2023-01-30T23:04:03.961Z,15.82
2023-01-30T23:06:31.468Z,21.67
2023-01-30T23:08:59.342Z,19.08
2023-01-30T23:11:38.328Z,19.20
2023-01-30T23:14:16.292Z,22.83
2023-01-30T23:16:44.633Z,17.60
2023-01-30T23:19:12.868Z,15.32
2023-01-30T23:21:46.069Z,25.42
2023-01-30T23:24:14.925Z,18.95
2023-01-30T23:26:46.662Z,15.90
2023-01-30T23:29:15.827Z,31.30
2023-01-30T23:31:44.071Z,24.85
2023-01-30T23:34:16.386Z,19.00
2023-01-30T23:36:43.197Z,12.90
2023-01-30T23:39:11.926Z,23.33
2023-01-30T23:41:38.868Z,21.25
2023-01-30T23:44:05.911Z,24.15
2023-01-30T23:46:42.602Z,16.48
2023-01-30T23:49:14.024Z,26.73
2023-01-30T23:51:42.382Z,11.15
2023-01-30T23:54:09.697Z,17.05
2023-01-30T23:56:38.775Z,25.60
2023-01-30T23:59:05.865Z,15.55
